Time;durP1;ratioP1;P1;durP2;ratioP2;P2;SDS_P1;SDS_P2;PMS_P1;PMS_P2;Temp;Humidity;BMP_temperature;BMP_pressure;BME280_temperature;BME280_humidity;BME280_pressure;Samples;Min_cycle;Max_cycle;Signal;HPM_P1;HPM_P2
2022/03/05 00:01:07;;;;;;;24.35;14.43;;;;;;;-2.10;77.33;101934.94;7393811;19;20341;-67
2022/03/05 00:03:35;;;;;;;23.70;14.75;;;;;;;-2.15;77.41;101934.72;7394534;19;20503;-67
2022/03/05 00:06:04;;;;;;;24.45;14.07;;;;;;;-2.16;77.71;101932.94;7393992;19;20018;-68
2022/03/05 00:08:34;;;;;;;25.25;14.02;;;;;;;-2.20;77.47;101926.78;7395750;19;20022;-67
2022/03/05 00:11:02;;;;;;;26.25;14.45;;;;;;;-2.21;77.72;101927.59;7395308;19;20634;-68
2022/03/05 00:13:31;;;;;;;24.55;15.00;;;;;;;-2.24;77.88;101930.00;7395542;19;20022;-67
2022/03/05 00:15:59;;;;;;;24.30;14.85;;;;;;;-2.27;77.95;101929.84;7393637;19;20036;-67
2022/03/05 00:18:28;;;;;;;21.83;14.70;;;;;;;-2.30;78.01;101919.41;7393976;19;20019;-67
2022/03/05 00:20:56;;;;;;;22.25;14.23;;;;;;;-2.32;78.27;101926.19;7395169;19;20014;-67
2022/03/05 00:23:25;;;;;;;21.08;13.75;;;;;;;-2.35;78.22;101926.91;7393119;19;20504;-67
2022/03/05 00:25:56;;;;;;;24.48;13.57;;;;;;;-2.38;78.26;101921.59;7393897;19;20032;-67
2022/03/05 00:28:24;;;;;;;20.83;13.75;;;;;;;-2.41;78.32;101916.31;7393828;19;20018;-67
2022/03/05 00:30:58;;;;;;;23.15;15.20;;;;;;;-2.44;78.32;101918.72;7395028;19;20045;-67
2022/03/05 00:33:26;;;;;;;23.10;13.93;;;;;;;-2.46;78.38;101922.91;7395158;19;20090;-67
2022/03/05 00:35:54;;;;;;;20.73;13.43;;;;;;;-2.50;78.63;101916.72;7392693;19;20019;-67
2022/03/05 00:38:22;;;;;;;24.15;13.88;;;;;;;-2.53;78.64;101919.13;7394750;19;20042;-68
2022/03/05 00:40:51;;;;;;;21.70;14.43;;;;;;;-2.55;78.65;101919.84;7392507;19;20014;-66
2022/03/05 00:43:21;;;;;;;21.95;14.75;;;;;;;-2.58;78.76;101917.16;7393681;19;20386;-67
2022/03/05 00:45:50;;;;;;;24.27;15.35;;;;;;;-2.62;78.93;101917.00;7398514;19;20496;-67
2022/03/05 00:48:18;;;;;;;20.23;13.98;;;;;;;-2.64;79.01;101916.03;7399579;19;20035;-68
2022/03/05 00:50:48;;;;;;;23.98;14.50;;;;;;;-2.65;79.01;101926.25;7402179;19;20417;-67
2022/03/05 00:53:17;;;;;;;21.05;13.25;;;;;;;-2.66;78.97;101919.31;7401692;19;20480;-67
2022/03/05 00:55:45;;;;;;;23.50;13.68;;;;;;;-2.69;79.03;101919.16;7399947;19;20364;-67
2022/03/05 00:58:14;;;;;;;28.00;15.07;;;;;;;-2.68;79.16;101918.34;7399026;19;20027;-67
2022/03/05 01:00:45;;;;;;;25.60;15.38;;;;;;;-2.69;79.26;101924.28;7398342;19;20014;-67
2022/03/05 01:03:13;;;;;;;20.58;14.45;;;;;;;-2.70;79.25;101920.84;7399687;19;20014;-67
2022/03/05 01:05:41;;;;;;;28.77;15.93;;;;;;;-2.70;79.45;101919.97;7398782;19;20015;-68
2022/03/05 01:08:10;;;;;;;21.58;14.98;;;;;;;-2.72;79.26;101919.00;7398820;19;20035;-67
2022/03/05 01:10:38;;;;;;;26.88;14.43;;;;;;;-2.73;79.46;101917.25;7401456;19;20026;-67
2022/03/05 01:13:07;;;;;;;24.42;14.95;;;;;;;-2.76;79.52;101919.66;7401476;19;20018;-67
2022/03/05 01:15:35;;;;;;;24.40;15.25;;;;;;;-2.78;79.49;101924.69;7399962;19;20014;-67
2022/03/05 01:18:06;;;;;;;27.95;16.23;;;;;;;-2.80;79.95;101916.06;7400843;19;20023;-67
2022/03/05 01:20:34;;;;;;;23.65;14.98;;;;;;;-2.82;79.78;101921.13;7398936;19;20014;-68
2022/03/05 01:23:02;;;;;;;30.48;17.20;;;;;;;-2.83;79.88;101914.22;7398422;19;20019;-68
2022/03/05 01:25:30;;;;;;;24.52;14.73;;;;;;;-2.85;80.03;101917.50;7400189;19;20014;-67
2022/03/05 01:27:58;;;;;;;29.83;15.80;;;;;;;-2.86;79.84;101916.59;7400892;19;20014;-67
2022/03/05 01:30:26;;;;;;;25.25;15.38;;;;;;;-2.91;79.93;101912.91;7397895;19;20406;-67
2022/03/05 01:32:55;;;;;;;31.75;15.77;;;;;;;-2.90;79.95;101917.25;7401513;19;20029;-67
2022/03/05 01:35:25;;;;;;;27.08;15.65;;;;;;;-2.92;80.01;101911.13;7397986;19;20014;-67
2022/03/05 01:37:54;;;;;;;27.00;17.92;;;;;;;-2.92;80.06;101905.13;7397817;19;20483;-68
2022/03/05 01:40:22;;;;;;;23.60;14.77;;;;;;;-2.94;79.98;101905.06;7400162;19;20354;-67
2022/03/05 01:42:50;;;;;;;23.08;14.82;;;;;;;-2.96;80.15;101904.09;7398902;19;20022;-67
2022/03/05 01:45:18;;;;;;;25.75;13.93;;;;;;;-2.98;80.17;101909.16;7399375;19;20018;-67
2022/03/05 01:47:47;;;;;;;21.08;13.68;;;;;;;-3.02;80.30;101903.75;7397866;19;20018;-67
2022/03/05 01:50:15;;;;;;;23.48;14.68;;;;;;;-3.05;80.44;101908.75;7397301;19;20496;-67
2022/03/05 01:52:46;;;;;;;24.17;13.57;;;;;;;-3.08;80.27;101903.44;7397739;19;20019;-67
2022/03/05 01:55:15;;;;;;;21.60;13.32;;;;;;;-3.12;80.07;101902.41;7397705;19;20513;-67
2022/03/05 01:57:43;;;;;;;20.13;13.73;;;;;;;-3.14;80.27;101896.31;7399969;19;20035;-67
2022/03/05 02:00:14;;;;;;;19.48;11.30;;;;;;;-3.17;80.33;101901.25;7399031;19;20010;-68
2022/03/05 02:02:51;;;;;;;17.90;11.48;;;;;;;-3.21;80.19;101895.13;7398878;19;20018;-68
2022/03/05 02:05:19;;;;;;;18.20;11.60;;;;;;;-3.26;80.46;101894.00;7398972;19;20032;-68
2022/03/05 02:07:50;;;;;;;17.75;10.88;;;;;;;-3.31;80.46;101890.25;7399667;19;20015;-68
2022/03/05 02:10:18;;;;;;;19.00;11.63;;;;;;;-3.37;80.39;101885.69;7399514;19;20018;-67
2022/03/05 02:12:47;;;;;;;20.00;11.77;;;;;;;-3.43;80.42;101885.38;7397406;19;20487;-68
2022/03/05 02:15:15;;;;;;;17.45;11.15;;;;;;;-3.46;80.46;101890.34;7398380;19;20019;-67
2022/03/05 02:17:43;;;;;;;21.10;12.77;;;;;;;-3.51;80.56;101890.09;7396885;19;20023;-67
2022/03/05 02:20:12;;;;;;;18.80;10.50;;;;;;;-3.50;80.63;101896.09;7399053;19;20022;-67
2022/03/05 02:22:43;;;;;;;18.27;11.07;;;;;;;-3.52;80.65;101896.00;7398251;19;20035;-67
2022/03/05 02:25:11;;;;;;;14.88;10.15;;;;;;;-3.54;80.44;101892.47;7398279;19;20027;-66
2022/03/05 02:27:40;;;;;;;15.48;10.60;;;;;;;-3.55;80.76;101892.41;7398890;19;20037;-67
2022/03/05 02:30:09;;;;;;;16.98;10.15;;;;;;;-3.58;80.51;101887.13;7398764;19;20100;-67
2022/03/05 02:32:37;;;;;;;16.30;10.90;;;;;;;-3.62;80.72;101883.50;7396203;19;20382;-67
2022/03/05 02:35:07;;;;;;;17.77;10.18;;;;;;;-3.63;80.55;101889.41;7397913;19;20018;-67
2022/03/05 02:37:35;;;;;;;15.35;10.45;;;;;;;-3.63;80.30;101891.97;7396452;19;20032;-67
2022/03/05 02:40:07;;;;;;;17.73;10.50;;;;;;;-3.67;80.36;101885.78;7398509;19;20018;-67
2022/03/05 02:42:35;;;;;;;16.42;10.70;;;;;;;-3.69;80.33;101882.28;7397815;19;20045;-67
2022/03/05 02:45:03;;;;;;;14.32;9.85;;;;;;;-3.71;80.46;101878.75;7397692;19;20035;-67
2022/03/05 02:47:31;;;;;;;15.85;9.93;;;;;;;-3.72;80.55;101887.22;7396255;19;20015;-67
2022/03/05 02:49:59;;;;;;;18.55;10.60;;;;;;;-3.73;80.54;101887.16;7397726;19;20480;-67
2022/03/05 02:52:27;;;;;;;23.27;11.45;;;;;;;-3.73;80.64;101884.59;7398040;19;20035;-68
2022/03/05 02:54:56;;;;;;;18.10;10.48;;;;;;;-3.74;80.53;101873.47;7397114;19;20483;-67
2022/03/05 02:57:26;;;;;;;16.13;10.63;;;;;;;-3.77;80.60;101879.31;7398018;19;20018;-67
2022/03/05 03:05:32;;;;;;;19.55;10.65;;;;;;;-3.76;80.59;101885.31;7392909;19;20025;-67
2022/03/05 03:08:00;;;;;;;20.55;11.48;;;;;;;-3.78;80.70;101882.66;7393693;19;20015;-67
2022/03/05 03:10:28;;;;;;;16.77;11.43;;;;;;;-3.80;80.73;101879.13;7397535;19;20023;-67
2022/03/05 03:12:59;;;;;;;24.67;13.65;;;;;;;-3.82;80.96;101875.56;7396311;19;20365;-67
2022/03/05 03:15:27;;;;;;;22.00;12.82;;;;;;;-3.84;80.69;101883.97;7397776;19;20362;-67
2022/03/05 03:17:56;;;;;;;23.85;14.50;;;;;;;-3.87;81.00;101879.56;7395526;19;20041;-67
2022/03/05 03:20:27;;;;;;;16.77;12.18;;;;;;;-3.88;80.95;101880.41;7397307;19;20011;-67
2022/03/05 03:22:56;;;;;;;17.73;11.70;;;;;;;-3.89;81.03;101877.72;7395320;19;20035;-67
2022/03/05 03:25:25;;;;;;;17.73;11.32;;;;;;;-3.89;81.23;101881.19;7395269;19;20091;-67
2022/03/05 03:27:53;;;;;;;17.98;12.65;;;;;;;-3.88;81.34;101879.50;7396587;19;20367;-67
2022/03/05 03:30:24;;;;;;;16.80;11.75;;;;;;;-3.89;81.22;101881.19;7396790;19;20015;-67
2022/03/05 03:32:52;;;;;;;20.75;12.35;;;;;;;-3.89;81.13;101882.84;7394324;19;20495;-67
2022/03/05 03:35:20;;;;;;;22.90;13.13;;;;;;;-3.89;81.19;101880.28;7394562;19;20022;-67
2022/03/05 03:37:48;;;;;;;19.40;13.07;;;;;;;-3.91;81.33;101879.34;7396500;19;20035;-67
2022/03/05 03:40:18;;;;;;;17.45;11.90;;;;;;;-3.94;81.33;101872.34;7396427;19;20022;-67
2022/03/05 03:42:48;;;;;;;19.23;11.73;;;;;;;-3.97;81.19;101873.06;7395380;19;20037;-67
2022/03/05 03:45:17;;;;;;;18.33;11.82;;;;;;;-3.96;81.17;101881.63;7394757;19;20022;-67
2022/03/05 03:47:49;;;;;;;19.98;9.82;;;;;;;-3.99;81.24;101881.47;7394678;19;20014;-67
2022/03/05 03:50:19;;;;;;;17.98;10.70;;;;;;;-4.00;81.07;101885.69;7396602;19;20019;-67
2022/03/05 03:52:48;;;;;;;18.52;10.90;;;;;;;-4.00;81.14;101890.81;7394416;19;20041;-67
2022/03/05 03:55:18;;;;;;;16.23;10.65;;;;;;;-4.02;81.11;101886.41;7394387;19;20031;-67
2022/03/05 03:57:46;;;;;;;16.27;9.82;;;;;;;-4.05;81.09;101886.25;7394104;19;20359;-67
2022/03/05 04:00:17;;;;;;;15.35;9.32;;;;;;;-4.10;80.84;101889.41;7394328;19;20035;-67
2022/03/05 04:02:48;;;;;;;17.23;10.77;;;;;;;-4.09;80.93;101891.19;7395088;19;20039;-67
2022/03/05 04:05:16;;;;;;;20.42;10.85;;;;;;;-4.13;80.93;101896.94;7394524;19;20015;-67
2022/03/05 04:10:25;;;;;;;19.38;11.05;;;;;;;-4.18;80.86;101895.81;7395831;19;20003;-66
2022/03/05 04:12:53;;;;;;;18.50;11.23;;;;;;;-4.21;80.99;101895.63;7394461;19;20041;-66
2022/03/05 04:15:22;;;;;;;18.45;11.02;;;;;;;-4.22;81.02;101896.44;7395534;19;20425;-66
2022/03/05 04:17:53;;;;;;;19.65;12.02;;;;;;;-4.25;80.74;101898.81;7394578;19;20483;-67
2022/03/05 04:20:21;;;;;;;19.27;10.05;;;;;;;-4.27;80.86;101901.28;7395924;19;20027;-66
2022/03/05 04:22:49;;;;;;;20.20;11.40;;;;;;;-4.27;80.82;101908.09;7393757;19;20399;-67
2022/03/05 04:25:17;;;;;;;19.35;11.65;;;;;;;-4.29;80.92;101910.56;7393582;19;20022;-67
2022/03/05 04:27:45;;;;;;;17.35;10.77;;;;;;;-4.29;80.89;101913.13;7393394;19;20031;-67
2022/03/05 04:30:14;;;;;;;15.30;10.77;;;;;;;-4.31;80.89;101909.59;7394964;19;20098;-67
2022/03/05 04:32:42;;;;;;;23.23;11.13;;;;;;;-4.31;80.92;101916.38;7393084;19;20019;-67
2022/03/05 04:35:13;;;;;;;17.77;12.10;;;;;;;-4.33;80.95;101912.88;7394995;19;20022;-67
2022/03/05 04:37:42;;;;;;;22.33;12.13;;;;;;;-4.34;81.16;101908.53;7393539;19;20027;-67
2022/03/05 04:40:12;;;;;;;18.90;10.98;;;;;;;-4.35;80.98;101907.63;7392565;19;20432;-66
2022/03/05 04:42:40;;;;;;;19.25;11.30;;;;;;;-4.35;80.83;101914.47;7392376;19;20369;-67
2022/03/05 04:45:09;;;;;;;15.35;10.55;;;;;;;-4.37;80.92;101904.13;7395298;19;20018;-67
2022/03/05 04:47:37;;;;;;;19.58;11.52;;;;;;;-4.38;81.23;101907.47;7394710;19;20023;-67
2022/03/05 04:50:06;;;;;;;18.45;11.90;;;;;;;-4.40;81.05;101903.94;7394281;19;20479;-67
2022/03/05 04:52:37;;;;;;;17.10;11.15;;;;;;;-4.42;81.06;101906.41;7392643;19;20022;-67
2022/03/05 04:55:06;;;;;;;18.48;10.50;;;;;;;-4.39;81.04;101915.09;7395101;19;20035;-67
2022/03/05 04:57:35;;;;;;;15.75;10.23;;;;;;;-4.39;81.07;101915.09;7394499;19;20042;-67
2022/03/05 05:00:04;;;;;;;19.63;9.55;;;;;;;-4.42;81.24;101911.53;7392529;19;20027;-67
2022/03/05 05:02:33;;;;;;;14.63;9.68;;;;;;;-4.43;80.96;101911.44;7392162;19;20022;-67
2022/03/05 05:05:01;;;;;;;18.67;10.80;;;;;;;-4.44;80.95;101914.81;7393228;19;20018;-67
2022/03/05 05:07:29;;;;;;;13.95;9.75;;;;;;;-4.46;80.74;101922.41;7392378;19;20018;-67
2022/03/05 05:10:00;;;;;;;15.05;10.02;;;;;;;-4.47;81.09;101918.06;7392180;19;20031;-67
2022/03/05 05:12:28;;;;;;;16.42;9.18;;;;;;;-4.49;81.09;101917.09;7391962;19;20416;-67
2022/03/05 05:14:56;;;;;;;16.05;9.77;;;;;;;-4.50;80.76;101923.03;7394069;19;20031;-66
2022/03/05 05:17:24;;;;;;;18.90;10.43;;;;;;;-4.50;80.88;101922.13;7394004;19;20376;-66
2022/03/05 05:19:52;;;;;;;15.45;9.48;;;;;;;-4.53;80.52;101924.53;7393690;19;20018;-67
2022/03/05 05:22:21;;;;;;;14.52;9.20;;;;;;;-4.55;80.75;101924.41;7392985;19;20036;-67
2022/03/05 05:24:49;;;;;;;13.45;9.80;;;;;;;-4.56;80.87;101930.34;7391742;19;20037;-67
2022/03/05 05:27:19;;;;;;;14.18;8.88;;;;;;;-4.58;80.76;101931.94;7393381;19;20378;-66
2022/03/05 05:29:47;;;;;;;13.00;9.60;;;;;;;-4.59;80.81;101938.75;7392390;19;20023;-66
2022/03/05 05:32:16;;;;;;;14.18;10.05;;;;;;;-4.60;80.62;101936.06;7399798;19;20023;-67
2022/03/05 05:34:44;;;;;;;18.30;10.07;;;;;;;-4.61;80.68;101935.19;7400245;19;20471;-67
2022/03/05 05:37:12;;;;;;;15.75;9.38;;;;;;;-4.62;80.50;101935.97;7400607;19;20021;-67
2022/03/05 05:39:40;;;;;;;17.17;9.98;;;;;;;-4.62;80.64;101937.66;7397979;19;20022;-67
2022/03/05 05:42:09;;;;;;;15.13;10.13;;;;;;;-4.63;80.43;101941.88;7399744;19;20023;-66
2022/03/05 05:44:39;;;;;;;19.27;10.30;;;;;;;-4.62;80.75;101942.78;7397902;19;20022;-67
2022/03/05 05:47:08;;;;;;;158.10;72.38;;;;;;;-4.65;80.55;101938.38;7400851;19;20027;-66
2022/03/05 05:49:37;;;;;;;42.72;21.63;;;;;;;-4.63;80.62;101936.75;7397771;19;20022;-66
2022/03/05 05:52:06;;;;;;;19.35;11.55;;;;;;;-4.63;80.57;101938.47;7399496;19;20018;-67
2022/03/05 05:54:35;;;;;;;15.13;9.27;;;;;;;-4.61;80.63;101939.44;7400137;19;20022;-66
2022/03/05 05:57:03;;;;;;;15.75;10.27;;;;;;;-4.61;80.65;101940.31;7397485;19;20022;-66
2022/03/05 05:59:31;;;;;;;12.98;9.50;;;;;;;-4.61;80.63;101937.75;7400179;19;20094;-67
2022/03/05 06:02:24;;;;;;;15.35;9.32;;;;;;;-4.61;80.41;101940.31;7398805;19;20011;-67
2022/03/05 06:04:59;;;;;;;14.82;9.80;;;;;;;-4.63;80.39;101946.13;7397342;19;20032;-66
2022/03/05 06:07:27;;;;;;;14.50;9.65;;;;;;;-4.64;80.46;101939.25;7396870;19;20487;-67
2022/03/05 06:09:55;;;;;;;15.02;8.98;;;;;;;-4.63;80.62;101946.13;7397236;19;20023;-66
2022/03/05 06:12:23;;;;;;;15.63;9.15;;;;;;;-4.63;80.47;101947.00;7397113;19;20036;-67
2022/03/05 06:14:51;;;;;;;18.55;10.05;;;;;;;-4.63;80.42;101953.81;7399502;19;20019;-66
2022/03/05 06:17:19;;;;;;;16.92;10.32;;;;;;;-4.63;80.36;101951.25;7399364;19;20022;-67
2022/03/05 06:19:50;;;;;;;17.10;9.52;;;;;;;-4.62;80.38;101958.16;7399338;19;20035;-67
2022/03/05 06:22:18;;;;;;;13.68;9.23;;;;;;;-4.63;80.46;101954.69;7397162;19;20019;-67
2022/03/05 06:24:46;;;;;;;71.20;35.33;;;;;;;-4.62;80.53;101958.16;7396531;19;20538;-66
2022/03/05 06:27:15;;;;;;;46.25;21.45;;;;;;;-4.60;80.54;101964.22;7398788;19;20031;-67
2022/03/05 06:29:43;;;;;;;17.83;11.02;;;;;;;-4.58;80.63;101966.09;7398811;19;20035;-67
2022/03/05 06:32:11;;;;;;;16.23;10.20;;;;;;;-4.58;80.58;101958.41;7396216;19;20023;-70
2022/03/05 06:34:39;;;;;;;17.02;11.23;;;;;;;-4.53;80.51;101965.50;7396575;19;20019;-67
2022/03/05 06:37:10;;;;;;;20.35;11.77;;;;;;;-4.52;80.38;101968.16;7398528;19;20019;-67
2022/03/05 06:39:38;;;;;;;22.17;12.10;;;;;;;-4.50;80.77;101966.56;7398837;19;20015;-67
2022/03/05 06:42:08;;;;;;;20.70;12.98;;;;;;;-4.51;80.54;101964.81;7396974;19;20499;-67
2022/03/05 06:44:36;;;;;;;20.17;12.80;;;;;;;-4.44;80.76;101973.72;7395938;19;20023;-67
2022/03/05 06:47:05;;;;;;;42.25;14.95;;;;;;;-4.43;81.01;101976.38;7398258;19;20019;-67
2022/03/05 06:49:33;;;;;;;19.58;13.02;;;;;;;-4.40;80.79;101975.66;7398096;19;20039;-67
2022/03/05 06:52:01;;;;;;;21.98;13.75;;;;;;;-4.37;81.06;101972.41;7395457;19;20380;-67
2022/03/05 06:54:32;;;;;;;28.25;15.52;;;;;;;-4.33;81.15;101979.50;7398105;19;20018;-67
2022/03/05 06:57:00;;;;;;;24.45;14.98;;;;;;;-4.31;81.14;101983.91;7398096;19;20368;-67
2022/03/05 06:59:28;;;;;;;26.02;16.67;;;;;;;-4.27;81.13;101988.41;7396003;19;20062;-66
2022/03/05 07:01:56;;;;;;;22.17;14.60;;;;;;;-4.24;81.44;101981.72;7397376;19;20022;-67
2022/03/05 07:04:31;;;;;;;24.95;15.75;;;;;;;-4.20;81.47;101981.97;7395249;19;20023;-67
2022/03/05 07:06:59;;;;;;;23.75;14.52;;;;;;;-4.14;81.71;101990.00;7396222;19;20022;-67
2022/03/05 07:09:27;;;;;;;22.38;15.80;;;;;;;-4.10;81.55;101986.81;7395802;19;20036;-67
2022/03/05 07:11:57;;;;;;;27.70;17.85;;;;;;;-4.04;81.93;101986.31;7396557;19;20028;-67
2022/03/05 07:14:26;;;;;;;24.08;15.93;;;;;;;-3.98;82.16;101988.34;7397351;19;20022;-67
2022/03/05 07:16:54;;;;;;;24.10;15.63;;;;;;;-3.93;82.07;101985.25;7394829;19;20487;-67
2022/03/05 07:19:22;;;;;;;26.90;17.27;;;;;;;-3.89;81.98;101981.19;7397158;19;20015;-67
2022/03/05 07:21:50;;;;;;;29.83;17.60;;;;;;;-3.80;82.12;101985.97;7395114;19;20393;-67
2022/03/05 07:24:19;;;;;;;27.05;18.13;;;;;;;-3.74;82.24;101982.84;7396161;19;20015;-67
2022/03/05 07:26:47;;;;;;;27.63;17.88;;;;;;;-3.67;82.34;101987.53;7396836;19;20019;-67
2022/03/05 07:29:18;;;;;;;29.65;18.38;;;;;;;-3.61;82.23;101985.31;7396795;19;20019;-67
2022/03/05 07:31:46;;;;;;;26.92;18.15;;;;;;;-3.55;82.46;101983.09;7395225;19;20028;-67
2022/03/05 07:34:14;;;;;;;35.03;20.58;;;;;;;-3.49;82.55;101986.00;7397053;19;20019;-68
2022/03/05 07:36:42;;;;;;;35.08;22.45;;;;;;;-3.39;82.73;101983.94;7396546;19;20039;-67
2022/03/05 07:39:10;;;;;;;32.35;20.60;;;;;;;-3.34;83.07;101979.94;7394552;19;20018;-64
2022/03/05 07:41:39;;;;;;;36.25;22.13;;;;;;;-3.25;83.00;101983.00;7394503;19;20018;-66
2022/03/05 07:44:08;;;;;;;33.40;22.90;;;;;;;-3.18;83.31;101989.38;7395627;19;20035;-67
2022/03/05 07:46:40;;;;;;;34.55;23.67;;;;;;;-3.11;83.18;101986.31;7394410;19;20014;-68
2022/03/05 07:49:09;;;;;;;37.78;24.25;;;;;;;-3.03;83.27;101989.28;7396223;19;20018;-67
2022/03/05 07:51:37;;;;;;;35.10;25.75;;;;;;;-2.97;83.25;101993.09;7394229;19;20018;-68
2022/03/05 07:54:06;;;;;;;29.83;21.95;;;;;;;-2.89;83.51;101995.16;7394362;19;20018;-68
2022/03/05 07:56:34;;;;;;;30.23;21.55;;;;;;;-2.83;83.32;101996.41;7394372;19;20023;-69
2022/03/05 07:59:02;;;;;;;31.30;20.20;;;;;;;-2.76;83.54;101995.03;7395912;19;20035;-68
2022/03/05 08:01:30;;;;;;;28.38;20.15;;;;;;;-2.69;83.54;101992.00;7394056;19;20019;-69
2022/03/05 08:04:01;;;;;;;26.15;19.40;;;;;;;-2.62;84.13;101996.66;7395277;19;20029;-68
2022/03/05 08:06:29;;;;;;;28.63;20.45;;;;;;;-2.52;84.25;101994.56;7394554;19;20039;-66
2022/03/05 08:08:59;;;;;;;31.35;20.55;;;;;;;-2.43;84.64;101989.00;7394081;19;20381;-68
2022/03/05 08:11:27;;;;;;;30.13;20.55;;;;;;;-2.31;84.34;101999.94;7395272;19;20029;-67
2022/03/05 08:13:55;;;;;;;32.17;21.13;;;;;;;-2.20;85.08;102001.34;7395440;19;20039;-67
2022/03/05 08:16:23;;;;;;;30.65;20.95;;;;;;;-2.09;84.72;101995.88;7393911;19;20018;-68
2022/03/05 08:18:51;;;;;;;29.92;20.42;;;;;;;-1.99;84.75;102005.81;7393629;19;20027;-66
2022/03/05 08:21:23;;;;;;;34.42;20.52;;;;;;;-1.90;84.24;102003.69;7393639;19;20019;-67
2022/03/05 08:23:51;;;;;;;30.77;21.20;;;;;;;-1.82;84.39;101994.66;7393325;19;20018;-68
2022/03/05 08:26:19;;;;;;;31.25;21.20;;;;;;;-1.74;84.01;102000.19;7393314;19;20035;-65
2022/03/05 08:28:47;;;;;;;36.58;23.27;;;;;;;-1.67;83.93;101994.53;7394961;19;20026;-65
2022/03/05 08:31:15;;;;;;;27.95;19.67;;;;;;;-1.60;84.18;102003.41;7394747;19;20023;-70
2022/03/05 08:33:44;;;;;;;27.00;19.30;;;;;;;-1.54;84.26;102000.25;7393101;19;20023;-66
2022/03/05 08:36:12;;;;;;;29.05;19.67;;;;;;;-1.48;83.97;101988.56;7394950;19;20019;-66
2022/03/05 08:38:43;;;;;;;26.67;18.42;;;;;;;-1.40;83.96;101995.75;7392778;19;20010;-69
2022/03/05 08:41:11;;;;;;;32.17;21.17;;;;;;;-1.35;83.86;101984.88;7394891;19;20022;-66
2022/03/05 08:43:39;;;;;;;29.95;19.38;;;;;;;-1.28;83.86;101990.31;7392966;19;20035;-66
2022/03/05 08:46:07;;;;;;;29.55;20.30;;;;;;;-1.22;83.83;101994.06;7392111;19;20506;-67
2022/03/05 08:48:35;;;;;;;28.83;21.20;;;;;;;-1.16;83.92;101990.91;7392523;19;20023;-67
2022/03/05 08:51:03;;;;;;;33.03;21.05;;;;;;;-1.09;84.18;101982.63;7393957;19;20023;-66
2022/03/05 08:53:32;;;;;;;30.42;19.95;;;;;;;-1.00;84.11;101987.31;7392780;19;20039;-67
2022/03/05 08:56:03;;;;;;;30.42;19.15;;;;;;;-0.91;83.98;101985.19;7394119;19;20018;-66
2022/03/05 08:58:31;;;;;;;25.55;18.42;;;;;;;-0.85;83.63;101988.03;7393930;19;20471;-67
2022/03/05 09:01:01;;;;;;;30.50;18.70;;;;;;;-0.78;83.88;101985.69;7393942;19;20026;-66
2022/03/05 09:03:29;;;;;;;30.42;18.95;;;;;;;-0.69;83.53;101991.28;7392060;19;20041;-67
2022/03/05 09:05:58;;;;;;;31.98;19.23;;;;;;;-0.63;83.46;101986.41;7395109;19;20011;-67
2022/03/05 09:08:26;;;;;;;28.60;19.25;;;;;;;-0.57;83.61;101991.84;7398706;19;20117;-66
2022/03/05 09:10:54;;;;;;;30.80;19.52;;;;;;;-0.50;83.46;101988.69;7400991;19;20108;-67
2022/03/05 09:13:25;;;;;;;31.48;18.92;;;;;;;-0.43;83.36;101987.28;7399115;19;20031;-67
2022/03/05 09:15:53;;;;;;;32.13;19.88;;;;;;;-0.36;83.13;101988.41;7398842;19;20014;-67
2022/03/05 09:18:21;;;;;;;29.90;19.23;;;;;;;-0.30;83.19;101992.94;7401160;19;20039;-67
2022/03/05 09:20:49;;;;;;;28.10;18.10;;;;;;;-0.24;82.86;101988.94;7401140;19;20018;-67
2022/03/05 09:23:18;;;;;;;27.52;18.73;;;;;;;-0.18;82.94;101989.22;7398668;19;20031;-67
2022/03/05 09:25:46;;;;;;;28.75;19.05;;;;;;;-0.10;82.92;101986.94;7398519;19;20022;-66
2022/03/05 09:28:14;;;;;;;26.88;18.42;;;;;;;-0.02;82.69;101984.69;7400324;19;20031;-67
2022/03/05 09:30:45;;;;;;;77.80;41.03;;;;;;;0.04;82.66;101990.13;7397745;19;20019;-67
2022/03/05 09:33:13;;;;;;;25.75;18.63;;;;;;;0.11;82.31;101986.94;7397856;19;20018;-68
2022/03/05 09:35:43;;;;;;;26.70;16.55;;;;;;;0.19;82.20;101983.81;7401148;19;20041;-71
2022/03/05 09:38:12;;;;;;;28.45;18.00;;;;;;;0.26;82.26;101980.66;7396957;19;20408;-67
2022/03/05 09:40:41;;;;;;;22.35;17.30;;;;;;;0.34;81.99;101984.41;7397670;19;20022;-66
2022/03/05 09:43:09;;;;;;;24.23;16.98;;;;;;;0.40;81.93;101973.47;7398184;19;20053;-66
2022/03/05 09:45:37;;;;;;;32.00;17.90;;;;;;;0.48;81.67;101978.13;7397141;19;20027;-67
2022/03/05 09:48:08;;;;;;;25.73;17.35;;;;;;;0.55;81.39;101971.47;7397732;19;20039;-69
2022/03/05 09:50:36;;;;;;;24.42;16.38;;;;;;;0.65;81.28;101964.97;7397856;19;20019;-70
2022/03/05 09:53:04;;;;;;;19.13;14.95;;;;;;;0.71;81.12;101974.66;7397557;19;20015;-69
2022/03/05 09:55:33;;;;;;;18.92;13.35;;;;;;;0.77;80.75;101968.03;7399663;19;20416;-68
2022/03/05 09:58:02;;;;;;;21.88;14.85;;;;;;;0.84;80.35;101970.88;7399957;19;20031;-67
2022/03/05 10:00:30;;;;;;;24.55;15.80;;;;;;;0.92;80.29;101970.34;7399817;19;20018;-66
2022/03/05 10:02:59;;;;;;;23.63;14.45;;;;;;;1.01;80.02;101967.22;7396819;19;20483;-68
2022/03/05 10:05:31;;;;;;;20.98;14.30;;;;;;;1.09;79.72;101973.53;7395908;19;20023;-67
2022/03/05 10:08:10;;;;;;;20.85;13.82;;;;;;;1.18;79.64;101973.00;7398029;19;20019;-66
2022/03/05 10:10:50;;;;;;;19.95;13.77;;;;;;;1.26;79.03;101970.69;7399831;19;20022;-66
2022/03/05 10:13:29;;;;;;;20.20;14.30;;;;;;;1.35;78.89;101959.78;7397996;19;20035;-67
2022/03/05 10:15:59;;;;;;;21.15;14.05;;;;;;;1.44;78.96;101970.44;7396020;19;20019;-67
2022/03/05 10:18:29;;;;;;;24.40;13.40;;;;;;;1.52;78.63;101957.81;7398548;19;20042;-68
2022/03/05 10:21:01;;;;;;;20.60;12.70;;;;;;;1.59;78.21;101960.66;7398638;19;20027;-67
2022/03/05 10:23:32;;;;;;;22.55;13.73;;;;;;;1.67;77.92;101960.94;7396629;19;20018;-67
2022/03/05 10:26:03;;;;;;;20.88;14.85;;;;;;;1.74;77.60;101955.13;7397164;19;20022;-67
2022/03/05 10:28:32;;;;;;;19.13;13.13;;;;;;;1.84;77.42;101952.84;7399464;19;20385;-67
2022/03/05 10:31:03;;;;;;;21.17;12.15;;;;;;;1.94;76.89;101963.56;7396577;19;20022;-67
2022/03/05 10:33:34;;;;;;;20.33;12.45;;;;;;;2.01;76.49;101945.63;7396489;19;20366;-67
2022/03/05 10:36:07;;;;;;;19.88;12.05;;;;;;;2.11;75.89;101958.94;7398775;19;20031;-67
2022/03/05 10:38:47;;;;;;;17.17;11.07;;;;;;;2.20;74.85;101954.88;7398318;19;20394;-67
2022/03/05 10:41:17;;;;;;;18.67;11.90;;;;;;;2.28;75.49;101954.28;7396395;19;20023;-67
2022/03/05 10:43:47;;;;;;;21.98;11.25;;;;;;;2.35;74.93;101949.31;7395884;19;20053;-68
2022/03/05 10:46:16;;;;;;;16.80;11.10;;;;;;;2.40;74.59;101948.66;7396380;19;20037;-67
2022/03/05 10:48:46;;;;;;;18.02;11.55;;;;;;;2.46;74.35;101940.16;7395891;19;20106;-67
2022/03/05 10:51:18;;;;;;;19.88;11.98;;;;;;;2.53;73.89;101933.47;7395751;19;20428;-67
2022/03/05 10:53:48;;;;;;;19.45;12.30;;;;;;;2.61;73.30;101929.41;7396247;19;20018;-67
2022/03/05 10:56:24;;;;;;;19.35;12.70;;;;;;;2.70;73.36;101936.56;7395614;19;20392;-67
2022/03/05 10:59:10;;;;;;;16.33;11.63;;;;;;;2.77;72.78;101930.75;7398126;19;20035;-67
2022/03/05 11:01:41;;;;;;;19.40;11.98;;;;;;;2.86;72.98;101922.34;7398331;19;20019;-67
2022/03/05 11:04:11;;;;;;;14.90;10.40;;;;;;;2.96;72.52;101923.47;7397919;19;20018;-67
2022/03/05 11:06:42;;;;;;;14.55;10.20;;;;;;;3.04;70.17;101922.00;7395131;19;20015;-67
2022/03/05 11:09:13;;;;;;;13.75;9.40;;;;;;;3.15;71.41;101918.00;7395727;19;20035;-68
2022/03/05 11:11:42;;;;;;;14.82;9.88;;;;;;;3.24;70.04;101914.78;7396034;19;20035;-67
2022/03/05 11:14:15;;;;;;;15.38;9.95;;;;;;;3.33;70.15;101911.56;7397318;19;20022;-67
2022/03/05 11:16:44;;;;;;;15.00;9.13;;;;;;;3.46;68.99;101904.97;7395767;19;20018;-67
2022/03/05 11:19:14;;;;;;;15.57;9.38;;;;;;;3.60;68.77;101906.19;7395358;19;20022;-67
2022/03/05 11:21:45;;;;;;;14.73;8.63;;;;;;;3.74;68.21;101903.94;7396696;19;20022;-67
2022/03/05 11:24:15;;;;;;;13.88;8.63;;;;;;;3.89;67.77;101906.03;7396570;19;20028;-68
2022/03/05 11:26:43;;;;;;;8.05;5.50;;;;;;;4.00;66.54;101907.19;7395472;19;20028;-67
2022/03/05 11:29:12;;;;;;;6.07;4.05;;;;;;;4.09;64.90;101898.75;7392841;19;20031;-67